Time;durP1;ratioP1;P1;durP2;ratioP2;P2;SDS_P1;SDS_P2;PMS_P1;PMS_P2;Temp;Humidity;BMP_temperature;BMP_pressure;BME280_temperature;BME280_humidity;BME280_pressure;Samples;Min_cycle;Max_cycle;Signal;HPM_P1;HPM_P2
2023/04/08 00:00:15;;;;;;;6.32;3.40;;;;;;;4.88;44.19;148536.19;5062543;28;20066;-67
2023/04/08 00:02:41;;;;;;;6.40;3.65;;;;;;;4.88;45.17;148534.94;5082655;28;20073;-68
2023/04/08 00:05:07;;;;;;;6.78;3.67;;;;;;;4.80;45.37;148517.06;5070511;28;20164;-68
2023/04/08 00:07:33;;;;;;;5.53;2.88;;;;;;;4.84;44.73;148527.28;5072098;28;20025;-69
2023/04/08 00:09:59;;;;;;;5.57;3.25;;;;;;;4.88;45.43;148536.19;5079425;28;20029;-67
2023/04/08 00:12:25;;;;;;;9.02;3.30;;;;;;;4.87;45.23;148533.63;5064129;28;20477;-68
2023/04/08 00:14:51;;;;;;;10.10;4.32;;;;;;;4.95;45.24;148554.06;5082928;28;20055;-67
2023/04/08 00:17:16;;;;;;;4.72;3.35;;;;;;;4.85;45.20;148528.56;5068993;28;20104;-67
2023/04/08 00:19:43;;;;;;;6.05;3.20;;;;;;;4.83;45.49;148523.41;5074109;28;20029;-68
2023/04/08 00:22:09;;;;;;;6.15;3.30;;;;;;;4.80;45.32;148515.75;5077582;28;20078;-69
2023/04/08 00:24:35;;;;;;;5.38;3.28;;;;;;;4.73;45.34;148497.91;5064783;28;20084;-67
2023/04/08 00:27:01;;;;;;;6.75;3.03;;;;;;;4.75;45.49;148503.03;5083495;28;20024;-69
2023/04/08 00:29:27;;;;;;;8.43;3.47;;;;;;;4.72;46.34;148495.34;5067065;28;20104;-68
2023/04/08 00:31:53;;;;;;;7.43;2.97;;;;;;;4.62;46.05;148471.13;5092590;28;20039;-68
2023/04/08 00:34:19;;;;;;;6.97;3.72;;;;;;;4.66;45.99;148481.34;5096715;28;20346;-66
2023/04/08 00:36:46;;;;;;;6.45;3.30;;;;;;;4.73;46.37;148497.91;5082830;28;20047;-68
2023/04/08 00:39:12;;;;;;;12.13;4.07;;;;;;;4.81;46.01;148519.59;5084083;28;20021;-67
2023/04/08 00:41:38;;;;;;;10.65;3.72;;;;;;;4.55;46.47;148454.50;5064717;28;20067;-67
2023/04/08 00:44:04;;;;;;;6.50;3.85;;;;;;;4.72;46.43;148496.63;5062927;28;20028;-67
2023/04/08 00:46:35;;;;;;;11.02;3.70;;;;;;;4.56;46.57;148457.06;5071666;28;20086;-68
2023/04/08 00:49:01;;;;;;;5.60;2.97;;;;;;;4.68;47.05;148485.16;5079423;28;20067;-68
2023/04/08 00:51:28;;;;;;;10.18;3.47;;;;;;;4.60;46.88;148466.00;5062705;28;20044;-65
2023/04/08 00:53:54;;;;;;;6.25;3.45;;;;;;;4.54;46.63;148451.94;5083198;28;20024;-65
2023/04/08 00:56:21;;;;;;;5.25;3.30;;;;;;;4.53;47.74;148448.13;5083098;28;20087;-67
2023/04/08 00:58:47;;;;;;;6.03;3.47;;;;;;;4.58;46.71;148462.16;5072802;28;20316;-65
2023/04/08 01:01:33;;;;;;;5.80;3.75;;;;;;;4.64;47.56;148476.22;5067161;28;20041;-65
2023/04/08 01:04:14;;;;;;;7.22;3.58;;;;;;;4.56;47.69;148455.78;5079336;28;20029;-64
2023/04/08 01:06:55;;;;;;;10.23;3.97;;;;;;;4.53;47.18;148449.38;5064211;28;20121;-65
2023/04/08 01:09:24;;;;;;;4.80;3.65;;;;;;;4.52;47.48;148446.88;5083104;28;20036;-65
2023/04/08 01:11:52;;;;;;;8.38;4.05;;;;;;;4.55;47.23;148454.50;5062210;28;20039;-64
2023/04/08 01:14:25;;;;;;;6.82;3.70;;;;;;;4.67;47.25;148483.84;5076552;28;20020;-64
2023/04/08 01:16:54;;;;;;;8.00;3.53;;;;;;;4.74;47.03;148500.47;5072492;28;20306;-65
2023/04/08 01:19:29;;;;;;;7.43;3.72;;;;;;;4.55;47.88;148454.50;5068426;28;20024;-65
2023/04/08 01:22:11;;;;;;;8.10;3.60;;;;;;;4.37;48.11;148408.56;5080080;28;20029;-66
2023/04/08 01:24:42;;;;;;;10.23;3.88;;;;;;;4.41;47.60;148420.03;5062541;28;20024;-65
2023/04/08 01:27:10;;;;;;;8.38;4.03;;;;;;;4.51;47.97;148443.03;5061325;28;20191;-66
2023/04/08 01:29:36;;;;;;;8.50;3.97;;;;;;;4.59;47.84;148463.41;5079925;28;20036;-66
2023/04/08 01:32:03;;;;;;;6.63;4.30;;;;;;;4.52;48.54;148445.56;5084675;28;20198;-67
2023/04/08 01:34:30;;;;;;;7.70;4.20;;;;;;;4.48;48.07;148437.91;5095634;28;20029;-65
2023/04/08 01:36:57;;;;;;;7.25;4.03;;;;;;;4.52;47.89;148446.88;5080090;28;20325;-65
2023/04/08 01:39:24;;;;;;;6.70;4.10;;;;;;;4.55;48.98;148453.25;5062487;28;20133;-66
2023/04/08 01:41:53;;;;;;;9.18;4.30;;;;;;;4.27;49.07;148385.56;5081812;28;20036;-67
2023/04/08 01:44:21;;;;;;;6.28;3.85;;;;;;;4.36;48.57;148406.00;5083244;28;20075;-68
2023/04/08 01:46:48;;;;;;;6.28;4.40;;;;;;;4.35;49.21;148403.44;5072207;28;20033;-66
2023/04/08 01:49:16;;;;;;;8.52;4.30;;;;;;;4.15;49.18;148355.00;5064889;28;20302;-67
2023/04/08 01:51:43;;;;;;;9.73;4.28;;;;;;;4.14;49.29;148352.41;5063792;28;20021;-67
2023/04/08 01:54:09;;;;;;;10.40;4.47;;;;;;;4.38;49.22;148412.41;5082953;28;20033;-68
2023/04/08 01:56:38;;;;;;;9.80;4.45;;;;;;;4.37;49.80;148408.56;5065246;28;20213;-67
2023/04/08 01:59:08;;;;;;;7.30;4.47;;;;;;;4.53;48.95;148449.38;5074574;28;20345;-68
2023/04/08 02:01:34;;;;;;;6.57;3.78;;;;;;;4.46;48.89;148431.50;5074489;28;20029;-66
2023/04/08 02:04:01;;;;;;;7.18;4.22;;;;;;;4.42;49.51;148421.34;5064858;28;20313;-67
2023/04/08 02:06:28;;;;;;;8.60;4.60;;;;;;;4.36;49.15;148406.00;5082695;28;20028;-66
2023/04/08 02:08:54;;;;;;;8.40;4.78;;;;;;;4.48;49.97;148436.66;5063062;28;20221;-67
2023/04/08 02:11:20;;;;;;;11.32;4.47;;;;;;;4.45;49.89;148429.00;5075296;28;20206;-66
2023/04/08 02:13:46;;;;;;;8.98;5.30;;;;;;;4.38;49.44;148411.13;5072863;28;20036;-66
2023/04/08 02:16:55;;;;;;;10.35;5.15;;;;;;;4.36;49.94;148406.00;5065258;28;20036;-66
2023/04/08 02:19:28;;;;;;;10.65;4.97;;;;;;;4.24;50.02;148376.66;5072199;28;20083;-67
2023/04/08 02:22:05;;;;;;;11.77;5.00;;;;;;;4.23;49.93;148374.09;5084054;28;20024;-65
2023/04/08 02:24:32;;;;;;;8.90;4.55;;;;;;;4.25;50.95;148380.50;5065034;28;20084;-66
2023/04/08 02:27:00;;;;;;;10.23;4.60;;;;;;;4.16;50.08;148357.50;5085292;28;20029;-65
2023/04/08 02:29:28;;;;;;;7.13;4.70;;;;;;;4.02;51.34;148321.78;5070996;28;20043;-65
2023/04/08 02:31:55;;;;;;;12.02;5.00;;;;;;;4.14;51.26;148352.41;5094192;28;20032;-67
2023/04/08 02:34:22;;;;;;;13.38;5.53;;;;;;;4.18;50.77;148361.38;5100407;28;20059;-67
2023/04/08 02:36:49;;;;;;;10.73;4.88;;;;;;;4.13;50.65;148349.84;5084763;28;20028;-67
2023/04/08 02:39:15;;;;;;;8.98;4.70;;;;;;;4.19;50.80;148363.91;5065660;28;20040;-66
2023/04/08 02:41:41;;;;;;;9.23;4.78;;;;;;;4.21;51.27;148369.03;5075529;28;20063;-67
2023/04/08 02:44:08;;;;;;;10.63;4.97;;;;;;;4.17;51.63;148358.81;5079959;28;20032;-67
2023/04/08 02:46:34;;;;;;;19.77;4.88;;;;;;;4.24;51.12;148376.66;5077148;28;20028;-67
2023/04/08 02:49:00;;;;;;;9.10;4.57;;;;;;;4.23;51.79;148374.09;5068673;28;20027;-66
2023/04/08 02:51:26;;;;;;;10.68;5.00;;;;;;;4.30;50.57;148393.28;5086125;28;20087;-67
2023/04/08 02:53:52;;;;;;;17.50;4.97;;;;;;;4.25;51.18;148380.50;5084867;28;20036;-68
2023/04/08 02:56:18;;;;;;;11.52;5.50;;;;;;;4.00;51.63;148316.72;5070724;28;20024;-68
2023/04/08 02:58:44;;;;;;;10.95;5.15;;;;;;;3.93;51.16;148300.09;5065597;28;20028;-67
2023/04/08 03:01:10;;;;;;;10.95;5.25;;;;;;;3.98;51.32;148312.88;5068632;28;20036;-68
2023/04/08 03:03:36;;;;;;;11.68;4.78;;;;;;;3.64;52.23;148228.69;5085557;28;20028;-67
2023/04/08 03:06:02;;;;;;;10.55;6.00;;;;;;;3.74;52.27;148252.94;5065265;28;20037;-67
2023/04/08 03:08:28;;;;;;;11.82;5.72;;;;;;;3.74;52.10;148252.94;5080147;28;20273;-67
2023/04/08 03:10:53;;;;;;;11.63;5.90;;;;;;;3.81;51.91;148270.78;5074964;28;20021;-67
2023/04/08 03:13:19;;;;;;;15.23;5.78;;;;;;;3.90;52.41;148292.47;5070317;28;20225;-67
2023/04/08 03:15:45;;;;;;;10.70;5.35;;;;;;;3.75;52.25;148255.50;5084820;28;20024;-67
2023/04/08 03:18:10;;;;;;;11.23;5.32;;;;;;;3.84;52.05;148277.19;5065544;28;20372;-67
2023/04/08 03:20:36;;;;;;;15.30;6.05;;;;;;;3.88;51.47;148287.38;5081199;28;20020;-68
2023/04/08 03:23:01;;;;;;;9.35;5.70;;;;;;;3.87;51.54;148286.06;5085093;28;20092;-66
2023/04/08 03:25:28;;;;;;;9.43;5.07;;;;;;;3.90;52.05;148292.47;5077915;28;20037;-68
2023/04/08 03:27:54;;;;;;;12.75;5.03;;;;;;;3.63;52.33;148227.44;5064918;28;20041;-65
2023/04/08 03:30:20;;;;;;;11.25;5.63;;;;;;;3.82;52.06;148273.34;5070815;28;20036;-65
2023/04/08 03:32:45;;;;;;;11.02;5.00;;;;;;;3.82;52.08;148272.03;5102337;28;20339;-66
2023/04/08 03:35:11;;;;;;;8.27;5.25;;;;;;;3.78;51.92;148263.13;5092143;28;20051;-66
2023/04/08 03:37:37;;;;;;;9.02;4.72;;;;;;;3.85;52.63;148279.69;5076069;28;20033;-66
2023/04/08 03:40:03;;;;;;;15.27;5.72;;;;;;;3.96;52.20;148307.75;5067607;28;20086;-68
2023/04/08 03:42:28;;;;;;;11.77;5.45;;;;;;;4.03;52.52;148324.34;5084345;28;20024;-66
2023/04/08 03:44:54;;;;;;;9.75;5.32;;;;;;;4.13;52.32;148351.16;5066274;28;20032;-66
2023/04/08 03:47:19;;;;;;;9.45;4.82;;;;;;;3.89;52.69;148289.91;5078047;28;20029;-66
2023/04/08 03:49:45;;;;;;;10.52;5.30;;;;;;;3.89;51.88;148291.22;5074821;28;20074;-65
2023/04/08 03:52:11;;;;;;;12.27;5.63;;;;;;;3.86;52.28;148282.25;5067517;28;20048;-65
2023/04/08 03:54:36;;;;;;;10.65;5.25;;;;;;;3.94;52.34;148303.94;5084536;28;20232;-66
2023/04/08 03:57:02;;;;;;;10.95;4.93;;;;;;;3.79;52.21;148266.97;5065416;28;20035;-64
2023/04/08 03:59:27;;;;;;;9.18;4.60;;;;;;;4.03;52.36;148325.63;5078285;28;20025;-64
2023/04/08 04:01:53;;;;;;;12.55;5.30;;;;;;;3.95;51.84;148306.50;5074553;28;20032;-65
2023/04/08 04:04:18;;;;;;;11.45;4.32;;;;;;;4.07;51.58;148335.81;5069195;28;20261;-66
2023/04/08 04:06:44;;;;;;;8.98;5.07;;;;;;;3.78;51.99;148263.13;5084191;28;20032;-67
2023/04/08 04:09:10;;;;;;;10.00;5.68;;;;;;;3.82;52.40;148272.03;5064233;28;20317;-66
2023/04/08 04:11:36;;;;;;;10.93;5.78;;;;;;;3.95;52.22;148306.50;5078999;28;20146;-65
2023/04/08 04:14:02;;;;;;;27.00;7.15;;;;;;;3.76;52.56;148258.00;5073207;28;20029;-66
2023/04/08 04:16:28;;;;;;;10.73;5.75;;;;;;;3.66;52.92;148232.50;5062968;28;20225;-65
2023/04/08 04:18:53;;;;;;;10.35;6.07;;;;;;;3.72;53.17;148247.81;5065180;28;20097;-65
2023/04/08 04:21:19;;;;;;;11.80;6.10;;;;;;;3.87;52.21;148286.06;5083728;28;20088;-66
2023/04/08 04:23:45;;;;;;;9.68;5.68;;;;;;;3.94;52.31;148303.94;5067331;28;20416;-65
2023/04/08 04:26:10;;;;;;;10.38;5.85;;;;;;;3.93;53.05;148301.41;5073941;28;20036;-67
2023/04/08 04:28:37;;;;;;;13.30;6.68;;;;;;;3.82;52.73;148272.03;5076813;28;20233;-65
2023/04/08 04:31:03;;;;;;;12.90;6.22;;;;;;;3.92;52.97;148297.53;5078885;28;20427;-67
2023/04/08 04:33:29;;;;;;;11.05;6.15;;;;;;;3.97;52.23;148310.31;5104176;28;20039;-65
2023/04/08 04:35:55;;;;;;;13.32;6.50;;;;;;;4.01;52.58;148319.28;5085245;28;20095;-65
2023/04/08 04:38:20;;;;;;;8.82;5.47;;;;;;;4.03;52.61;148324.34;5082764;28;20035;-65
2023/04/08 04:40:46;;;;;;;11.45;5.32;;;;;;;4.05;52.24;148330.75;5074115;28;20033;-67
2023/04/08 04:43:11;;;;;;;12.07;6.38;;;;;;;4.09;52.79;148339.66;5067136;28;20024;-65
2023/04/08 04:45:37;;;;;;;9.80;5.90;;;;;;;4.29;52.46;148389.41;5081982;28;20103;-66
2023/04/08 04:48:03;;;;;;;10.23;5.13;;;;;;;4.48;52.51;148437.91;5063987;28;20096;-66
2023/04/08 04:50:28;;;;;;;10.77;5.97;;;;;;;4.63;51.20;148473.63;5077175;28;20058;-65
2023/04/08 04:52:54;;;;;;;7.90;4.95;;;;;;;4.40;52.33;148416.22;5073125;28;20043;-67
2023/04/08 04:55:21;;;;;;;12.88;5.75;;;;;;;4.70;51.37;148490.25;5067701;28;20212;-64
2023/04/08 04:57:47;;;;;;;11.45;5.70;;;;;;;4.57;51.52;148459.59;5083017;28;20375;-65
2023/04/08 05:00:14;;;;;;;10.45;5.70;;;;;;;4.51;51.80;148444.31;5063313;28;20044;-65
2023/04/08 05:02:39;;;;;;;11.70;5.93;;;;;;;4.60;52.07;148467.28;5062910;28;20056;-65
2023/04/08 05:05:05;;;;;;;8.52;4.82;;;;;;;4.60;51.48;148466.00;5073527;28;20036;-66
2023/04/08 05:07:35;;;;;;;9.43;5.78;;;;;;;4.76;50.98;148506.84;5076258;28;20339;-66
2023/04/08 05:10:00;;;;;;;10.02;5.60;;;;;;;4.72;51.93;148495.34;5081455;28;20087;-66
2023/04/08 05:12:26;;;;;;;10.32;5.90;;;;;;;4.91;51.73;148542.59;5062485;28;20045;-65
2023/04/08 05:14:52;;;;;;;10.27;5.53;;;;;;;5.07;50.49;148583.44;5080250;28;20240;-65
2023/04/08 05:17:17;;;;;;;9.80;6.28;;;;;;;5.07;50.98;148582.16;5070624;28;20029;-66
2023/04/08 05:19:43;;;;;;;9.88;5.53;;;;;;;5.37;50.11;148657.50;5069637;28;20105;-66
2023/04/08 05:22:08;;;;;;;10.40;5.53;;;;;;;5.48;50.08;148685.59;5079975;28;20079;-64
2023/04/08 05:24:35;;;;;;;14.30;6.47;;;;;;;5.51;49.39;148691.97;5062706;28;20051;-69
2023/04/08 05:27:00;;;;;;;12.60;6.13;;;;;;;5.62;49.40;148718.81;5062607;28;20056;-67
2023/04/08 05:29:26;;;;;;;14.32;6.53;;;;;;;5.64;48.85;148725.22;5075977;28;20047;-66
2023/04/08 05:31:52;;;;;;;11.73;6.03;;;;;;;5.74;49.02;148748.19;5088342;28;20028;-67
2023/04/08 05:34:21;;;;;;;13.63;6.78;;;;;;;5.96;49.15;148804.41;5087702;28;20024;-67
2023/04/08 05:36:53;;;;;;;12.82;5.22;;;;;;;5.89;48.49;148786.53;5086631;28;20036;-66
2023/04/08 05:39:19;;;;;;;14.60;5.88;;;;;;;6.05;48.13;148827.44;5063225;28;20029;-66
2023/04/08 05:41:45;;;;;;;9.57;4.93;;;;;;;6.29;48.11;148886.25;5066005;28;20032;-67
2023/04/08 05:44:12;;;;;;;12.98;5.72;;;;;;;6.34;47.65;148899.03;5073768;28;20181;-66
2023/04/08 05:46:38;;;;;;;12.88;5.80;;;;;;;6.72;46.92;148993.63;5075187;28;20244;-67
2023/04/08 05:49:04;;;;;;;13.23;6.20;;;;;;;7.23;46.19;149118.97;5062982;28;20032;-69
2023/04/08 05:51:30;;;;;;;9.18;6.28;;;;;;;7.30;45.30;149136.88;5065512;28;20063;-66
2023/04/08 05:53:55;;;;;;;12.02;5.40;;;;;;;6.96;45.91;149052.44;5066754;28;20309;-67
2023/04/08 05:56:21;;;;;;;11.35;5.95;;;;;;;7.00;46.48;149062.69;5078818;28;20072;-68
2023/04/08 05:58:47;;;;;;;11.45;5.50;;;;;;;7.58;44.64;149205.94;5086771;28;20040;-65
2023/04/08 06:01:12;;;;;;;11.82;5.35;;;;;;;7.83;45.08;149267.38;5083501;28;20093;-67
2023/04/08 06:03:38;;;;;;;11.82;5.82;;;;;;;7.89;44.42;149282.72;5066695;28;20317;-66
2023/04/08 06:06:09;;;;;;;14.70;5.38;;;;;;;8.23;43.40;149367.19;5084767;28;20233;-66
2023/04/08 06:08:34;;;;;;;11.40;5.70;;;;;;;8.61;43.81;149462.00;5072089;28;20071;-69
2023/04/08 06:11:00;;;;;;;13.55;5.50;;;;;;;8.84;43.04;149518.34;5075894;28;20032;-68
2023/04/08 06:13:26;;;;;;;12.90;5.63;;;;;;;8.90;42.25;149534.97;5081790;28;20051;-67
2023/04/08 06:15:51;;;;;;;11.63;5.82;;;;;;;9.02;41.93;149563.16;5066312;28;20039;-66
2023/04/08 06:18:17;;;;;;;12.60;4.95;;;;;;;9.35;41.76;149645.13;5077692;28;20268;-67
2023/04/08 06:20:42;;;;;;;17.80;5.80;;;;;;;9.30;41.94;149633.63;5084935;28;20021;-66
2023/04/08 06:23:08;;;;;;;10.02;5.57;;;;;;;9.20;41.44;149609.25;5075715;28;20024;-67
2023/04/08 06:25:34;;;;;;;12.40;5.70;;;;;;;9.11;42.40;149586.22;5071500;28;20031;-68
2023/04/08 06:27:59;;;;;;;10.70;5.97;;;;;;;9.04;41.67;149568.31;5084997;28;20209;-68
2023/04/08 06:30:25;;;;;;;10.07;5.20;;;;;;;9.33;41.62;149641.28;5072758;28;20044;-68
2023/04/08 06:32:50;;;;;;;11.02;6.20;;;;;;;9.80;40.89;149757.91;5103974;28;20063;-69
2023/04/08 06:35:16;;;;;;;11.85;6.20;;;;;;;10.30;40.50;149882.25;5088232;28;20257;-69
2023/04/08 06:37:41;;;;;;;15.57;6.15;;;;;;;10.62;40.52;149961.84;5072632;28;20025;-68
2023/04/08 06:40:08;;;;;;;8.70;6.03;;;;;;;10.49;39.60;149931.03;5084053;28;20036;-67
2023/04/08 06:42:33;;;;;;;10.25;6.05;;;;;;;10.32;39.26;149888.66;5064727;28;20075;-69
2023/04/08 06:44:59;;;;;;;10.38;5.53;;;;;;;10.94;40.06;150041.34;5083329;28;20032;-68
2023/04/08 06:47:25;;;;;;;9.90;5.60;;;;;;;11.01;39.35;150060.56;5085434;28;20213;-68
2023/04/08 06:49:50;;;;;;;9.13;5.93;;;;;;;10.62;38.75;149961.84;5085061;28;20032;-67
2023/04/08 06:52:16;;;;;;;15.30;5.85;;;;;;;10.65;39.49;149970.78;5089466;28;20053;-68
2023/04/08 06:54:41;;;;;;;10.77;5.20;;;;;;;10.96;39.18;150046.44;5094494;28;21064;-69
2023/04/08 06:57:07;;;;;;;11.60;6.20;;;;;;;10.40;38.94;149906.66;5091508;28;20221;-66
2023/04/08 06:59:33;;;;;;;14.50;5.78;;;;;;;11.13;39.25;150088.78;5101708;28;20220;-67
2023/04/08 07:01:59;;;;;;;9.77;5.45;;;;;;;11.76;38.90;150246.66;5094746;28;20290;-67
2023/04/08 07:04:24;;;;;;;9.85;5.20;;;;;;;11.58;38.60;150201.72;5081408;28;20028;-69
2023/04/08 07:06:50;;;;;;;13.85;5.65;;;;;;;12.23;38.34;150364.81;5065261;28;20033;-68
2023/04/08 07:09:16;;;;;;;11.80;5.55;;;;;;;12.87;35.63;150522.75;5084139;28;20072;-67
2023/04/08 07:11:41;;;;;;;8.13;5.63;;;;;;;13.62;36.56;150711.75;5070491;28;20020;-68
2023/04/08 07:14:07;;;;;;;12.63;6.18;;;;;;;13.98;34.67;150800.47;5074945;28;20071;-68
2023/04/08 07:16:32;;;;;;;11.90;6.13;;;;;;;14.01;34.84;150806.84;5079754;28;20017;-68
2023/04/08 07:18:58;;;;;;;13.70;5.80;;;;;;;14.01;34.27;150806.84;5065597;28;20134;-68
2023/04/08 07:21:24;;;;;;;11.30;5.57;;;;;;;13.95;33.92;150794.03;5085227;28;20062;-67
2023/04/08 07:23:50;;;;;;;6.15;5.47;;;;;;;14.23;34.09;150863.44;5069238;28;20099;-71
2023/04/08 07:26:15;;;;;;;13.80;5.82;;;;;;;13.94;33.74;150790.19;5075830;28;20111;-68
2023/04/08 07:28:41;;;;;;;17.00;6.35;;;;;;;13.85;34.13;150768.28;5078634;28;20226;-68
2023/04/08 07:31:17;;;;;;;8.95;5.60;;;;;;;14.84;33.21;151015.28;5080589;28;20058;-69
2023/04/08 07:33:43;;;;;;;9.82;5.85;;;;;;;15.19;33.30;151104.06;5105051;28;20032;-70
2023/04/08 07:36:10;;;;;;;12.55;6.07;;;;;;;15.24;33.10;151115.63;5086477;28;20070;-67
2023/04/08 07:38:36;;;;;;;13.85;6.30;;;;;;;14.64;32.87;150966.38;5071135;28;20028;-67
2023/04/08 07:41:02;;;;;;;14.02;5.63;;;;;;;15.05;33.55;151068.03;5072363;28;20209;-67
2023/04/08 07:43:29;;;;;;;18.63;6.68;;;;;;;14.54;33.67;150939.34;5080472;28;20024;-68
2023/04/08 07:46:01;;;;;;;11.13;5.97;;;;;;;14.11;33.90;150833.88;5064815;28;20074;-66
2023/04/08 07:48:27;;;;;;;;;;;;;;;14.67;34.16;150974.09;5063877;28;20232;-68
2023/04/08 07:50:52;;;;;;;11.32;5.57;;;;;;;14.61;32.98;150957.34;5080260;28;19908;-67
2023/04/08 07:53:18;;;;;;;7.53;5.50;;;;;;;12.99;34.51;150552.34;5073533;28;20083;-68
2023/04/08 07:55:44;;;;;;;8.65;5.43;;;;;;;14.28;33.81;150876.31;5070612;28;20209;-68
2023/04/08 07:58:09;;;;;;;8.07;5.35;;;;;;;14.43;32.25;150912.31;5083116;28;20093;-67
2023/04/08 08:00:35;;;;;;;8.82;5.32;;;;;;;14.89;32.43;151028.13;5064368;28;20025;-68
2023/04/08 08:03:01;;;;;;;9.43;5.57;;;;;;;13.70;33.97;150729.75;5080933;28;20064;-67
2023/04/08 08:05:26;;;;;;;13.23;5.68;;;;;;;14.08;33.10;150824.84;5085421;28;20039;-66
2023/04/08 08:07:52;;;;;;;11.80;5.53;;;;;;;13.08;34.07;150575.44;5094615;28;20034;-67
2023/04/08 08:10:17;;;;;;;12.25;4.68;;;;;;;13.46;33.01;150671.88;5094512;28;20046;-67
2023/04/08 08:12:43;;;;;;;15.02;4.95;;;;;;;13.45;33.31;150668.03;5089647;28;20020;-67
2023/04/08 08:15:09;;;;;;;7.97;4.97;;;;;;;13.23;34.50;150614.00;5094571;28;20028;-66
2023/04/08 08:17:35;;;;;;;10.63;5.45;;;;;;;13.62;33.92;150711.75;5093742;28;20294;-68
2023/04/08 08:20:03;;;;;;;10.80;5.22;;;;;;;14.22;34.19;150859.59;5093395;28;20043;-67
2023/04/08 08:22:29;;;;;;;10.18;5.05;;;;;;;13.34;34.22;150639.69;5090383;28;20024;-67
2023/04/08 08:24:58;;;;;;;6.85;4.40;;;;;;;12.44;35.63;150416.16;5091868;28;20043;-67
2023/04/08 08:27:24;;;;;;;8.98;5.60;;;;;;;12.36;35.86;150395.66;5092552;28;20332;-66
2023/04/08 08:29:51;;;;;;;9.82;5.70;;;;;;;12.17;36.48;150349.41;5092429;28;20028;-66
2023/04/08 08:32:16;;;;;;;11.70;5.97;;;;;;;13.09;35.58;150579.31;5071381;28;20360;-67
2023/04/08 08:34:42;;;;;;;6.25;5.43;;;;;;;12.64;36.95;150464.97;5057915;28;20033;-65
2023/04/08 08:37:07;;;;;;;10.40;6.20;;;;;;;12.95;35.92;150543.34;5042579;28;20075;-66
2023/04/08 08:39:33;;;;;;;8.32;5.35;;;;;;;12.91;35.69;150534.38;5043587;28;20021;-68
2023/04/08 08:41:59;;;;;;;9.10;5.60;;;;;;;12.13;36.51;150339.13;5059768;28;20229;-67
2023/04/08 08:44:25;;;;;;;7.43;5.18;;;;;;;13.01;36.76;150558.78;5054096;28;20029;-68
2023/04/08 08:46:51;;;;;;;10.18;5.72;;;;;;;13.23;35.98;150614.00;5052534;28;20338;-67
2023/04/08 08:49:17;;;;;;;5.82;4.55;;;;;;;13.05;33.76;150567.75;5062530;28;20036;-67
2023/04/08 08:51:45;;;;;;;6.38;4.38;;;;;;;13.25;33.91;150617.84;5071993;28;20344;-67
2023/04/08 08:54:11;;;;;;;9.50;5.03;;;;;;;13.48;33.97;150674.47;5068424;28;20092;-68
2023/04/08 08:56:37;;;;;;;13.45;4.32;;;;;;;13.12;33.66;150585.72;5070416;28;20203;-68
2023/04/08 08:59:03;;;;;;;7.80;4.25;;;;;;;12.78;33.18;150500.94;5085416;28;20265;-68
2023/04/08 09:01:31;;;;;;;8.95;4.00;;;;;;;12.77;33.21;150498.41;5069259;28;20045;-67
2023/04/08 09:04:18;;;;;;;6.25;3.78;;;;;;;13.63;33.96;150713.03;5073229;28;20024;-66
2023/04/08 09:07:07;;;;;;;8.23;4.03;;;;;;;14.13;34.21;150839.00;5071735;28;20055;-68
2023/04/08 09:09:50;;;;;;;8.30;4.13;;;;;;;14.43;33.90;150912.31;5074115;28;20056;-70
2023/04/08 09:12:15;;;;;;;7.32;3.95;;;;;;;14.56;33.01;150945.75;5060218;28;20122;-67
2023/04/08 09:14:41;;;;;;;7.43;4.20;;;;;;;14.63;31.84;150963.78;5043320;28;20021;-68
2023/04/08 09:17:07;;;;;;;8.48;4.50;;;;;;;13.94;32.09;150790.19;5043088;28;20037;-68
2023/04/08 09:19:33;;;;;;;16.23;4.45;;;;;;;13.86;33.76;150769.59;5046949;28;20235;-70
2023/04/08 09:22:09;;;;;;;9.98;4.90;;;;;;;14.44;34.09;150914.91;5063066;28;20074;-69
2023/04/08 09:24:36;;;;;;;9.95;6.00;;;;;;;13.71;33.48;150733.59;5043075;28;20033;-67
2023/04/08 09:27:03;;;;;;;8.40;4.60;;;;;;;14.00;33.56;150804.31;5058905;28;20218;-69
2023/04/08 09:29:29;;;;;;;8.60;4.30;;;;;;;14.18;32.61;150850.59;5061595;28;20029;-68
2023/04/08 09:31:56;;;;;;;8.43;4.97;;;;;;;14.08;33.36;150824.84;5062982;28;20032;-68
2023/04/08 09:34:23;;;;;;;8.73;5.15;;;;;;;14.53;33.99;150938.03;5080030;28;20024;-69
2023/04/08 09:36:49;;;;;;;8.25;4.05;;;;;;;13.66;33.31;150719.47;5062750;28;20092;-69
2023/04/08 09:39:15;;;;;;;13.73;5.82;;;;;;;13.61;34.44;150709.16;5044807;28;20030;-68
2023/04/08 09:41:42;;;;;;;7.45;4.70;;;;;;;12.61;34.63;150458.53;5056107;28;20079;-67
2023/04/08 09:44:11;;;;;;;7.30;4.85;;;;;;;12.54;35.41;150441.88;5053862;28;20032;-67
2023/04/08 09:46:42;;;;;;;16.77;5.40;;;;;;;12.89;36.12;150529.19;5046916;28;20230;-68
2023/04/08 09:49:17;;;;;;;9.80;5.30;;;;;;;13.16;36.29;150596.03;5062329;28;20079;-68
2023/04/08 09:51:48;;;;;;;14.48;6.28;;;;;;;12.96;35.92;150545.91;5042718;28;20036;-69
2023/04/08 09:54:18;;;;;;;9.02;4.88;;;;;;;12.75;35.67;150494.53;5058970;28;20221;-69
2023/04/08 09:56:53;;;;;;;6.60;4.10;;;;;;;12.21;35.86;150359.69;5049104;28;20026;-69
2023/04/08 09:59:22;;;;;;;7.07;4.60;;;;;;;12.12;36.37;150335.28;5042776;28;20318;-67
2023/04/08 10:01:52;;;;;;;8.35;4.93;;;;;;;12.46;35.62;150420.06;5047943;28;20053;-68
2023/04/08 10:04:21;;;;;;;8.60;5.18;;;;;;;12.86;35.52;150521.50;5061783;28;20224;-68
2023/04/08 10:06:53;;;;;;;8.02;4.78;;;;;;;12.76;36.57;150495.81;5062518;28;20021;-67
2023/04/08 10:09:21;;;;;;;7.93;4.75;;;;;;;13.22;35.65;150610.16;5044323;28;20096;-67
2023/04/08 10:11:47;;;;;;;7.55;4.47;;;;;;;13.21;33.94;150608.88;5057873;28;20222;-69
2023/04/08 10:14:13;;;;;;;7.05;5.15;;;;;;;13.24;34.81;150615.28;5051217;28;20092;-69
2023/04/08 10:16:38;;;;;;;8.70;4.63;;;;;;;13.43;35.26;150662.91;5060604;28;20436;-68
2023/04/08 10:19:40;;;;;;;11.63;4.68;;;;;;;13.29;34.97;150628.13;5062207;28;20044;-68
2023/04/08 10:22:28;;;;;;;6.77;4.37;;;;;;;13.41;34.38;150657.72;5042337;28;20096;-68
2023/04/08 10:25:32;;;;;;;10.13;4.22;;;;;;;13.74;33.79;150741.31;5042401;28;20048;-67
2023/04/08 10:28:18;;;;;;;6.60;4.40;;;;;;;13.48;33.44;150674.47;5041833;28;20045;-68
2023/04/08 10:30:45;;;;;;;10.70;5.95;;;;;;;13.70;33.63;150729.75;5049651;28;20059;-70
2023/04/08 10:33:14;;;;;;;7.20;4.22;;;;;;;13.48;32.77;150675.72;5060942;28;20317;-67
2023/04/08 10:35:47;;;;;;;7.20;3.95;;;;;;;13.16;33.43;150594.75;5050655;28;20111;-68
2023/04/08 10:38:14;;;;;;;5.93;4.30;;;;;;;12.71;33.97;150484.28;5053288;28;20093;-68
2023/04/08 10:40:41;;;;;;;10.63;4.18;;;;;;;13.27;33.21;150624.28;5061783;28;20044;-67
2023/04/08 10:43:12;;;;;;;7.10;4.43;;;;;;;13.63;33.19;150713.03;5045946;28;20210;-68
2023/04/08 10:45:39;;;;;;;6.15;4.25;;;;;;;12.80;33.87;150506.09;5045771;28;20064;-68
2023/04/08 10:48:24;;;;;;;5.30;3.92;;;;;;;12.94;34.09;150540.78;5061567;28;20025;-67
2023/04/08 10:50:54;;;;;;;8.10;4.60;;;;;;;13.14;34.05;150590.91;5052386;28;20032;-67
2023/04/08 10:53:32;;;;;;;9.38;5.20;;;;;;;13.15;34.92;150593.44;5060824;28;20028;-69
2023/04/08 10:56:16;;;;;;;10.60;4.30;;;;;;;13.25;34.72;150619.19;5058923;28;20025;-68
2023/04/08 10:58:55;;;;;;;5.93;3.90;;;;;;;12.93;34.27;150539.47;5049484;28;20029;-67
2023/04/08 11:01:21;;;;;;;5.68;4.15;;;;;;;12.98;34.67;150551.03;5063846;28;20032;-67
2023/04/08 11:03:47;;;;;;;15.43;8.23;;;;;;;13.54;34.39;150691.19;5045391;28;20029;-67
2023/04/08 11:06:13;;;;;;;5.88;4.88;;;;;;;13.53;34.55;150687.31;5045391;28;20021;-68
2023/04/08 11:08:39;;;;;;;7.78;5.30;;;;;;;13.78;34.29;150751.59;5057861;28;20025;-68
2023/04/08 11:11:10;;;;;;;10.52;6.63;;;;;;;13.30;33.03;150632.00;5075800;28;20024;-68
2023/04/08 11:13:38;;;;;;;10.23;5.37;;;;;;;13.22;34.38;150611.41;5081746;28;20041;-68
2023/04/08 11:16:06;;;;;;;11.75;6.38;;;;;;;13.45;33.93;150668.03;5063191;28;20029;-69
2023/04/08 11:18:34;;;;;;;8.82;5.47;;;;;;;13.64;33.95;150715.63;5050231;28;20028;-69
2023/04/08 11:21:00;;;;;;;11.63;6.70;;;;;;;13.53;32.51;150688.59;5059680;28;20115;-69
2023/04/08 11:23:26;;;;;;;10.32;6.03;;;;;;;13.44;32.57;150666.75;5056752;28;20048;-68
2023/04/08 11:25:52;;;;;;;11.48;6.55;;;;;;;13.43;34.37;150662.91;5059098;28;20248;-70
2023/04/08 11:28:19;;;;;;;7.70;6.35;;;;;;;13.18;33.61;150601.19;5045319;28;20088;-69